Time;durP1;ratioP1;P1;durP2;ratioP2;P2;SDS_P1;SDS_P2;PMS_P1;PMS_P2;Temp;Humidity;BMP_temperature;BMP_pressure;BME280_temperature;BME280_humidity;BME280_pressure;Samples;Min_cycle;Max_cycle;Signal;HPM_P1;HPM_P2
2023/06/01 00:00:58;;;;;;;13.20;8.95;;;;;;;15.84;68.06;102153.03;5074471;28;20361;-58
2023/06/01 00:03:25;;;;;;;12.55;10.07;;;;;;;15.79;68.70;102151.63;5074739;28;20078;-57
2023/06/01 00:05:51;;;;;;;14.85;9.55;;;;;;;15.87;68.39;102144.78;5076609;28;20031;-58
2023/06/01 00:08:16;;;;;;;12.40;9.57;;;;;;;15.71;68.94;102146.75;5074989;28;20127;-58
2023/06/01 00:10:41;;;;;;;18.63;9.60;;;;;;;15.80;68.66;102150.69;5074803;28;20539;-58
2023/06/01 00:13:07;;;;;;;12.05;9.30;;;;;;;15.67;69.05;102148.75;5074441;28;20032;-57
2023/06/01 00:15:32;;;;;;;15.23;10.35;;;;;;;15.75;69.06;102142.06;5070989;28;20032;-57
2023/06/01 00:18:00;;;;;;;13.25;10.20;;;;;;;15.56;69.55;102145.88;5074695;28;20379;-58
2023/06/01 00:20:28;;;;;;;13.45;9.95;;;;;;;15.66;69.47;102147.00;5073315;28;20544;-58
2023/06/01 00:22:55;;;;;;;12.88;10.00;;;;;;;15.48;70.36;102142.81;5061701;28;20020;-58
2023/06/01 00:25:21;;;;;;;14.15;10.60;;;;;;;15.53;69.58;102140.72;5074083;28;20113;-58
2023/06/01 00:27:46;;;;;;;13.77;10.57;;;;;;;15.35;70.04;102141.84;5072306;28;20058;-58
2023/06/01 00:30:12;;;;;;;16.58;10.45;;;;;;;15.17;71.02;102143.84;5072474;28;20486;-58
2023/06/01 00:32:38;;;;;;;16.60;10.60;;;;;;;15.20;70.75;102138.31;5073059;28;20025;-58
2023/06/01 00:35:04;;;;;;;18.25;11.05;;;;;;;15.12;70.32;102149.50;5074341;28;20043;-58
2023/06/01 00:37:32;;;;;;;16.17;12.30;;;;;;;14.99;71.01;102145.84;5073226;28;20107;-58
2023/06/01 00:39:57;;;;;;;16.02;11.30;;;;;;;15.08;70.75;102152.47;5079225;28;20028;-58
2023/06/01 00:42:23;;;;;;;16.17;11.77;;;;;;;14.98;70.56;102149.50;5074043;28;20036;-57
2023/06/01 00:44:48;;;;;;;15.20;11.50;;;;;;;14.90;70.86;102149.94;5072141;28;20095;-58
2023/06/01 00:47:14;;;;;;;17.13;12.23;;;;;;;14.80;71.19;102132.72;5074082;28;20153;-58
2023/06/01 00:49:40;;;;;;;16.67;12.35;;;;;;;14.74;71.47;102138.44;5073118;28;20027;-57
2023/06/01 00:52:06;;;;;;;17.65;12.57;;;;;;;14.61;72.25;102140.13;5073946;28;20107;-58
2023/06/01 00:54:31;;;;;;;14.82;11.40;;;;;;;14.54;72.20;102136.94;5072038;28;20500;-58
2023/06/01 00:56:56;;;;;;;15.02;11.63;;;;;;;14.48;72.31;102129.25;5088448;28;20047;-58
2023/06/01 00:59:22;;;;;;;16.52;12.20;;;;;;;14.52;72.08;102147.72;5086816;28;20467;-58
2023/06/01 01:01:48;;;;;;;17.60;12.57;;;;;;;14.34;72.43;102139.91;5072794;28;20028;-57
2023/06/01 01:04:25;;;;;;;13.98;11.50;;;;;;;14.48;72.30;102154.19;5073657;28;20052;-59
2023/06/01 01:07:20;;;;;;;20.45;11.93;;;;;;;14.53;72.04;102153.97;5057968;28;20463;-58
2023/06/01 01:10:05;;;;;;;16.63;12.65;;;;;;;14.46;72.25;102155.25;5066089;28;20027;-58
2023/06/01 01:12:53;;;;;;;14.32;12.35;;;;;;;14.64;71.56;102156.00;5076377;28;20122;-58
2023/06/01 01:15:48;;;;;;;19.35;12.90;;;;;;;14.52;71.86;102157.59;5073093;28;20058;-58
2023/06/01 01:18:25;;;;;;;21.02;12.20;;;;;;;14.60;71.52;102149.97;5053770;28;20036;-58
2023/06/01 01:21:00;;;;;;;17.77;12.57;;;;;;;14.46;72.02;102152.56;5098606;28;20020;-58
2023/06/01 01:23:51;;;;;;;16.73;12.90;;;;;;;14.36;71.83;102148.72;5073438;28;20034;-58
2023/06/01 01:26:24;;;;;;;18.25;12.93;;;;;;;14.28;72.25;102151.81;5072765;28;20464;-58
2023/06/01 01:28:53;;;;;;;16.58;13.35;;;;;;;14.14;72.96;102159.78;5105633;28;20029;-58
2023/06/01 01:31:24;;;;;;;21.13;13.82;;;;;;;13.99;73.33;102158.81;5091209;28;20028;-58
2023/06/01 01:33:52;;;;;;;14.82;13.05;;;;;;;13.98;73.19;102157.97;5093484;28;20024;-58
2023/06/01 01:36:18;;;;;;;21.00;13.85;;;;;;;13.74;74.48;102160.22;5080554;28;20056;-58
2023/06/01 01:38:44;;;;;;;21.50;14.90;;;;;;;13.66;74.58;102162.44;5103949;28;20229;-58
2023/06/01 01:41:10;;;;;;;22.90;15.13;;;;;;;13.68;74.12;102159.66;5072601;28;20107;-58
2023/06/01 01:43:36;;;;;;;15.90;13.95;;;;;;;14.00;73.45;102173.91;5072059;28;20024;-58
2023/06/01 01:46:26;;;;;;;20.98;14.75;;;;;;;13.93;73.31;102175.22;5067866;28;20404;-58
2023/06/01 01:49:00;;;;;;;20.25;15.02;;;;;;;13.85;73.41;102165.84;5102510;28;20381;-58
2023/06/01 01:51:53;;;;;;;23.52;16.63;;;;;;;13.69;74.15;102169.44;5072781;28;20380;-58
2023/06/01 01:54:20;;;;;;;19.85;15.02;;;;;;;13.82;73.43;102173.13;5072673;28;20103;-58
2023/06/01 01:56:46;;;;;;;19.20;15.55;;;;;;;13.63;73.90;102167.94;5071246;28;20463;-58
2023/06/01 01:59:12;;;;;;;21.35;15.70;;;;;;;13.52;74.75;102175.69;5068392;28;20467;-58
2023/06/01 02:01:44;;;;;;;19.73;16.02;;;;;;;13.72;73.92;102171.94;5072798;28;20021;-57
2023/06/01 02:04:09;;;;;;;22.05;16.63;;;;;;;13.43;74.71;102174.38;5079603;28;20056;-58
2023/06/01 02:06:36;;;;;;;19.70;16.95;;;;;;;13.52;74.53;102173.00;5075505;28;20044;-58
2023/06/01 02:09:06;;;;;;;20.10;17.90;;;;;;;13.27;75.02;102163.66;5072167;28;20028;-58
2023/06/01 02:11:32;;;;;;;23.05;16.77;;;;;;;13.43;74.80;102165.50;5072549;28;20020;-58
2023/06/01 02:13:59;;;;;;;28.50;18.55;;;;;;;13.43;74.61;102162.81;5070766;28;20024;-58
2023/06/01 02:16:25;;;;;;;20.17;16.83;;;;;;;13.31;74.79;102157.19;5072482;28;20132;-58
2023/06/01 02:18:51;;;;;;;24.48;16.77;;;;;;;13.23;74.87;102169.19;5069565;28;20523;-58
2023/06/01 02:21:16;;;;;;;19.20;17.13;;;;;;;13.02;75.19;102163.19;5074242;28;20032;-57
2023/06/01 02:23:42;;;;;;;23.73;17.67;;;;;;;12.97;75.31;102163.44;5072134;28;20020;-58
2023/06/01 02:26:09;;;;;;;23.50;18.02;;;;;;;12.92;75.52;102163.66;5072307;28;20025;-58
2023/06/01 02:28:38;;;;;;;24.80;16.85;;;;;;;12.91;75.49;102164.63;5070601;28;20089;-58
2023/06/01 02:31:05;;;;;;;20.58;17.15;;;;;;;12.82;75.87;102161.53;5103392;28;20021;-58
2023/06/01 02:33:30;;;;;;;22.13;15.68;;;;;;;12.79;76.03;102161.69;5103009;28;20031;-58
2023/06/01 02:35:55;;;;;;;27.13;16.70;;;;;;;12.80;75.95;102158.97;5070235;28;20016;-57
2023/06/01 02:38:21;;;;;;;19.92;16.10;;;;;;;12.85;75.78;102164.94;5081368;28;20024;-58
2023/06/01 02:40:46;;;;;;;17.95;15.98;;;;;;;12.80;76.33;102163.44;5079269;28;20029;-57
2023/06/01 02:43:11;;;;;;;20.95;16.33;;;;;;;12.45;77.26;102161.59;5072325;28;20028;-57
2023/06/01 02:45:38;;;;;;;20.52;16.92;;;;;;;12.30;77.83;102157.03;5069556;28;20486;-58
2023/06/01 02:48:04;;;;;;;22.83;16.17;;;;;;;12.70;76.63;102160.34;5070359;28;20117;-58
2023/06/01 02:50:31;;;;;;;19.83;16.88;;;;;;;12.71;75.92;102151.44;5071509;28;20071;-58
2023/06/01 02:52:59;;;;;;;18.73;15.82;;;;;;;12.52;76.35;102154.16;5071054;28;20027;-57
2023/06/01 02:55:24;;;;;;;16.95;14.88;;;;;;;12.45;76.65;102155.41;5077167;28;20020;-57
2023/06/01 02:57:50;;;;;;;18.20;14.73;;;;;;;12.44;76.84;102157.22;5071969;28;20024;-58
2023/06/01 03:00:15;;;;;;;19.30;15.05;;;;;;;12.62;76.45;102162.56;5071199;28;20027;-58
2023/06/01 03:02:45;;;;;;;18.80;15.15;;;;;;;12.43;76.56;102162.63;5070431;28;20119;-58
2023/06/01 03:05:14;;;;;;;;;;;;;;;12.73;75.24;102168.22;5072232;28;20029;-57
2023/06/01 03:07:44;;;;;;;20.63;15.85;;;;;;;12.36;76.68;102162.06;5071730;28;19999;-58
2023/06/01 03:10:10;;;;;;;21.35;15.35;;;;;;;12.32;77.07;102157.78;5071826;28;20036;-58
2023/06/01 03:12:36;;;;;;;21.20;14.10;;;;;;;12.56;76.61;102160.19;5070502;28;20036;-58
2023/06/01 03:15:02;;;;;;;18.27;14.07;;;;;;;12.35;76.95;102160.31;5069967;28;20107;-58
2023/06/01 03:17:28;;;;;;;19.05;13.68;;;;;;;12.48;76.69;102164.13;5071832;28;20017;-57
2023/06/01 03:19:53;;;;;;;19.23;13.75;;;;;;;12.35;77.19;102160.31;5069711;28;20035;-58
2023/06/01 03:22:19;;;;;;;16.80;14.00;;;;;;;12.27;77.52;102160.72;5070829;28;20033;-57
2023/06/01 03:24:49;;;;;;;16.70;13.80;;;;;;;12.39;76.94;102161.91;5070541;28;20025;-58
2023/06/01 03:27:15;;;;;;;19.67;14.18;;;;;;;12.52;76.92;102171.97;5104135;28;20029;-57
2023/06/01 03:29:41;;;;;;;18.48;14.07;;;;;;;12.65;76.54;102171.28;5100398;28;20569;-58
2023/06/01 03:32:07;;;;;;;15.98;13.48;;;;;;;12.69;76.14;102172.84;5051471;28;20040;-58
2023/06/01 03:34:32;;;;;;;15.35;13.10;;;;;;;12.59;76.28;102154.69;5068442;28;20036;-57
2023/06/01 03:36:58;;;;;;;20.67;12.65;;;;;;;12.62;75.92;102167.91;5070739;28;20032;-57
2023/06/01 03:39:23;;;;;;;15.77;12.68;;;;;;;12.64;76.20;102174.00;5102984;28;20056;-58
2023/06/01 03:41:49;;;;;;;17.88;11.98;;;;;;;12.58;76.51;102166.31;5070393;28;20115;-58
2023/06/01 03:44:14;;;;;;;17.02;12.25;;;;;;;12.64;76.05;102174.00;5068430;28;20028;-58
2023/06/01 03:46:40;;;;;;;15.10;11.98;;;;;;;12.63;76.08;102169.63;5049872;28;20056;-58
2023/06/01 03:49:05;;;;;;;16.42;12.43;;;;;;;12.63;75.90;102165.16;5069103;28;20028;-58
2023/06/01 03:51:31;;;;;;;17.27;12.77;;;;;;;12.63;75.56;102169.63;5069831;28;20104;-57
2023/06/01 03:53:57;;;;;;;17.00;12.07;;;;;;;12.66;75.68;102174.81;5069991;28;20031;-58
2023/06/01 03:56:22;;;;;;;16.63;12.15;;;;;;;12.52;75.90;102177.31;5071040;28;20044;-57
2023/06/01 03:58:49;;;;;;;13.05;11.65;;;;;;;12.35;76.15;102179.00;5071042;28;20043;-58
2023/06/01 04:01:19;;;;;;;14.35;12.27;;;;;;;12.53;75.67;102179.03;5070713;28;20113;-58
2023/06/01 04:03:45;;;;;;;14.05;12.32;;;;;;;12.67;75.36;102182.72;5084171;28;20391;-58
2023/06/01 04:06:17;;;;;;;14.70;11.30;;;;;;;12.66;75.52;102177.47;5073917;28;20047;-58
2023/06/01 04:08:50;;;;;;;14.48;11.55;;;;;;;12.25;76.88;102181.25;5066202;28;20115;-58
2023/06/01 04:11:16;;;;;;;14.63;11.15;;;;;;;12.31;76.47;102176.56;5071447;28;20501;-58
2023/06/01 04:13:44;;;;;;;15.52;11.27;;;;;;;12.31;76.36;102166.75;5070256;28;20020;-57
2023/06/01 04:16:10;;;;;;;14.75;11.18;;;;;;;12.46;75.59;102165.13;5067565;28;20414;-58
2023/06/01 04:18:36;;;;;;;18.67;11.65;;;;;;;12.40;75.59;102170.78;5067606;28;20070;-58
2023/06/01 04:21:01;;;;;;;16.95;10.68;;;;;;;12.46;76.04;102173.13;5068146;28;20039;-57
2023/06/01 04:23:27;;;;;;;14.00;11.30;;;;;;;12.45;75.58;102182.09;5073063;28;20494;-58
2023/06/01 04:25:53;;;;;;;13.18;11.70;;;;;;;12.53;75.31;102179.91;5074691;28;20420;-58
2023/06/01 04:28:20;;;;;;;12.98;11.35;;;;;;;12.48;75.50;102173.94;5105627;28;20047;-58
2023/06/01 04:30:47;;;;;;;13.48;11.23;;;;;;;12.21;76.04;102161.00;5071619;28;20042;-58
2023/06/01 04:33:13;;;;;;;14.10;11.65;;;;;;;12.45;75.48;102166.09;5071199;28;20031;-58
2023/06/01 04:35:38;;;;;;;16.52;11.18;;;;;;;12.46;75.75;102176.66;5072894;28;20020;-57
2023/06/01 04:38:04;;;;;;;17.05;10.85;;;;;;;12.47;74.70;102186.41;5070552;28;20021;-57
2023/06/01 04:40:33;;;;;;;14.48;11.38;;;;;;;12.39;74.92;102193.06;5073102;28;20379;-57
2023/06/01 04:43:02;;;;;;;17.38;11.57;;;;;;;12.46;74.68;102195.34;5105599;28;20025;-58
2023/06/01 04:45:30;;;;;;;16.83;11.43;;;;;;;12.35;75.28;102183.47;5071347;28;20031;-58
2023/06/01 04:47:57;;;;;;;18.25;11.93;;;;;;;12.34;75.28;102190.63;5072783;28;20078;-58
2023/06/01 04:50:23;;;;;;;16.02;11.75;;;;;;;12.33;75.10;102182.69;5096987;28;20032;-58
2023/06/01 04:52:49;;;;;;;16.23;12.07;;;;;;;12.32;75.53;102195.16;5094830;28;20041;-58
2023/06/01 04:55:17;;;;;;;17.83;11.82;;;;;;;12.42;74.93;102193.78;5060931;28;20536;-57
2023/06/01 04:57:43;;;;;;;17.52;12.15;;;;;;;12.43;74.56;102189.28;5072868;28;20032;-56
2023/06/01 05:00:13;;;;;;;18.58;12.25;;;;;;;12.33;74.74;102183.56;5072557;28;20035;-57
2023/06/01 05:02:44;;;;;;;16.58;11.85;;;;;;;12.40;74.89;102178.78;5073794;28;20024;-58
2023/06/01 05:05:10;;;;;;;15.43;13.77;;;;;;;12.03;75.86;102189.44;5072726;28;20017;-57
2023/06/01 05:07:39;;;;;;;15.95;12.50;;;;;;;12.23;75.33;102188.47;5073507;28;20025;-58
2023/06/01 05:10:06;;;;;;;19.27;12.80;;;;;;;12.20;75.13;102188.59;5073305;28;20100;-57
2023/06/01 05:12:35;;;;;;;18.52;14.07;;;;;;;12.10;75.78;102187.34;5083240;28;20029;-57
2023/06/01 05:15:04;;;;;;;18.33;13.23;;;;;;;12.11;75.30;102188.19;5072754;28;20503;-58
2023/06/01 05:17:30;;;;;;;19.63;14.82;;;;;;;12.19;75.11;102186.03;5069995;28;20068;-58
2023/06/01 05:19:56;;;;;;;15.45;13.77;;;;;;;12.30;74.68;102182.84;5073038;28;20432;-58
2023/06/01 05:22:22;;;;;;;17.48;12.65;;;;;;;12.22;75.28;102180.53;5073663;28;20024;-58
2023/06/01 05:24:48;;;;;;;17.90;12.80;;;;;;;12.39;74.59;102187.72;5071739;28;20380;-58
2023/06/01 05:27:14;;;;;;;19.48;13.43;;;;;;;12.31;74.29;102185.44;5072573;28;20440;-58
2023/06/01 05:29:39;;;;;;;15.82;14.18;;;;;;;12.50;74.03;102186.25;5111536;27;20028;-58
2023/06/01 05:32:07;;;;;;;18.65;14.13;;;;;;;12.45;74.10;102190.97;5080029;28;20019;-58
2023/06/01 05:34:32;;;;;;;17.30;13.65;;;;;;;12.43;74.06;102190.16;5092509;28;20059;-57
2023/06/01 05:36:58;;;;;;;18.17;13.30;;;;;;;12.48;74.22;102187.28;5071805;28;20511;-58
2023/06/01 05:39:27;;;;;;;15.40;13.68;;;;;;;12.44;74.33;102186.56;5054100;28;20029;-58
2023/06/01 05:41:53;;;;;;;17.77;14.02;;;;;;;12.43;74.61;102186.63;5068959;28;20033;-58
2023/06/01 05:44:18;;;;;;;18.90;14.07;;;;;;;12.45;74.13;102182.09;5068539;28;20032;-58
2023/06/01 05:46:44;;;;;;;15.75;13.38;;;;;;;12.63;73.68;102175.81;5068522;28;20626;-57
2023/06/01 05:49:09;;;;;;;19.80;13.65;;;;;;;12.53;73.84;102184.34;5067731;28;20047;-58
2023/06/01 05:51:37;;;;;;;18.13;13.70;;;;;;;12.60;73.99;102186.66;5071103;28;20099;-57
2023/06/01 05:54:03;;;;;;;17.92;14.25;;;;;;;12.59;73.64;102192.06;5071460;28;20365;-58
2023/06/01 05:56:29;;;;;;;19.27;13.48;;;;;;;12.69;73.77;102180.84;5072158;28;20127;-58
2023/06/01 05:58:54;;;;;;;20.98;13.82;;;;;;;12.64;73.25;102174.88;5070875;28;20432;-58
2023/06/01 06:01:20;;;;;;;17.42;14.38;;;;;;;12.63;73.80;102186.50;5073825;28;20024;-58
2023/06/01 06:03:45;;;;;;;19.67;14.63;;;;;;;12.78;73.19;102190.19;5069307;28;20036;-58
2023/06/01 06:06:11;;;;;;;17.80;14.23;;;;;;;12.80;73.80;102180.31;5070123;28;20398;-58
2023/06/01 06:08:37;;;;;;;18.13;14.40;;;;;;;12.95;72.87;102184.88;5063074;28;20056;-57
2023/06/01 06:11:02;;;;;;;16.77;13.98;;;;;;;12.94;72.56;102179.59;5063028;28;20490;-58
2023/06/01 06:13:28;;;;;;;18.10;14.70;;;;;;;13.10;72.96;102185.03;5072291;28;20077;-58
2023/06/01 06:15:54;;;;;;;16.90;13.95;;;;;;;13.42;72.23;102187.84;5070626;28;20062;-57
2023/06/01 06:18:20;;;;;;;17.90;13.63;;;;;;;13.50;72.58;102185.59;5070896;28;20059;-58
2023/06/01 06:20:46;;;;;;;20.08;14.25;;;;;;;13.66;71.09;102189.19;5059104;28;20052;-58
2023/06/01 06:23:12;;;;;;;16.58;12.63;;;;;;;13.68;70.26;102200.66;5058098;28;20060;-58
2023/06/01 06:25:39;;;;;;;14.95;13.25;;;;;;;13.62;69.82;102192.97;5072344;28;20099;-58
2023/06/01 06:28:05;;;;;;;15.90;12.40;;;;;;;13.83;69.60;102196.28;5071830;28;20078;-58
2023/06/01 06:30:31;;;;;;;19.48;12.98;;;;;;;13.62;69.33;102191.16;5069077;28;20020;-58
2023/06/01 06:32:56;;;;;;;15.50;12.48;;;;;;;13.88;68.68;102187.97;5072240;28;20086;-57
2023/06/01 06:35:21;;;;;;;17.45;13.02;;;;;;;14.01;67.85;102200.59;5074429;28;20035;-58
2023/06/01 06:37:47;;;;;;;20.63;13.77;;;;;;;13.91;67.47;102198.50;5069183;28;20062;-58
2023/06/01 06:40:13;;;;;;;18.52;12.90;;;;;;;13.73;68.80;102189.69;5069119;28;20032;-58
2023/06/01 06:42:38;;;;;;;21.80;14.07;;;;;;;13.69;68.95;102194.34;5070192;28;20032;-58
2023/06/01 06:45:05;;;;;;;14.80;12.38;;;;;;;13.58;68.26;102202.09;5070880;28;20020;-58
2023/06/01 06:47:30;;;;;;;17.80;13.25;;;;;;;13.59;68.90;102196.66;5071937;28;20361;-57
2023/06/01 06:49:56;;;;;;;19.45;14.23;;;;;;;13.63;69.32;102194.69;5103855;28;20043;-58
2023/06/01 06:52:22;;;;;;;17.60;12.25;;;;;;;13.67;68.68;102196.22;5071832;28;20464;-58
2023/06/01 06:54:48;;;;;;;17.20;12.85;;;;;;;13.56;69.75;102201.28;5071894;28;20033;-58
2023/06/01 06:57:13;;;;;;;16.60;13.50;;;;;;;13.58;69.13;102202.94;5071377;28;20044;-58
2023/06/01 06:59:41;;;;;;;17.83;13.75;;;;;;;13.68;69.17;102215.81;5071006;28;20032;-58
2023/06/01 07:02:06;;;;;;;17.20;13.80;;;;;;;13.57;69.06;102211.91;5071804;28;20056;-57
2023/06/01 07:04:32;;;;;;;17.58;13.20;;;;;;;13.55;69.52;102219.16;5071707;28;20048;-58
2023/06/01 07:07:00;;;;;;;16.98;13.82;;;;;;;13.55;69.77;102215.63;5071646;28;20033;-58
2023/06/01 07:09:26;;;;;;;19.67;14.13;;;;;;;13.57;69.40;102203.91;5071679;28;20024;-57
2023/06/01 07:11:51;;;;;;;18.63;13.48;;;;;;;13.76;69.85;102216.25;5071175;28;20024;-58
2023/06/01 07:14:16;;;;;;;17.70;13.48;;;;;;;13.96;67.78;102210.69;5071628;28;20039;-57
2023/06/01 07:16:42;;;;;;;17.27;13.90;;;;;;;14.05;67.12;102196.78;5071989;28;20024;-57
2023/06/01 07:19:08;;;;;;;19.90;14.38;;;;;;;14.28;67.06;102192.81;5070550;28;20031;-58
2023/06/01 07:21:33;;;;;;;18.75;13.73;;;;;;;14.49;67.37;102201.44;5071347;28;20108;-57
2023/06/01 07:23:58;;;;;;;18.70;12.52;;;;;;;14.57;66.95;102186.78;5071410;28;20032;-57
2023/06/01 07:26:26;;;;;;;18.85;13.90;;;;;;;14.70;66.36;102191.31;5071530;28;20024;-58
2023/06/01 07:28:53;;;;;;;22.58;13.43;;;;;;;14.62;66.57;102196.28;5071068;28;20138;-58
2023/06/01 07:31:19;;;;;;;18.02;13.27;;;;;;;14.65;66.53;102205.94;5071441;28;20015;-58
2023/06/01 07:33:45;;;;;;;21.33;13.02;;;;;;;14.80;66.19;102196.16;5071431;28;20025;-57
2023/06/01 07:36:11;;;;;;;16.58;12.90;;;;;;;15.14;64.76;102193.13;5071641;28;20025;-57
2023/06/01 07:38:37;;;;;;;19.10;13.60;;;;;;;14.91;65.01;102199.91;5053621;28;20028;-58
2023/06/01 07:41:05;;;;;;;17.98;12.55;;;;;;;15.06;64.71;102198.13;5071108;28;20504;-57
2023/06/01 07:43:30;;;;;;;16.88;12.55;;;;;;;15.03;64.88;102198.31;5071100;28;20028;-57
2023/06/01 07:45:57;;;;;;;19.17;12.70;;;;;;;15.35;64.06;102190.09;5071032;28;20058;-58
2023/06/01 07:48:22;;;;;;;20.15;12.18;;;;;;;15.55;62.70;102199.59;5071509;28;20032;-58
2023/06/01 07:50:50;;;;;;;18.02;13.18;;;;;;;15.52;62.86;102199.78;5069993;28;20020;-58
2023/06/01 07:53:16;;;;;;;17.38;12.27;;;;;;;15.65;61.56;102195.41;5071203;28;20028;-58
2023/06/01 07:55:43;;;;;;;16.70;12.18;;;;;;;15.79;60.55;102205.28;5071014;28;20025;-57
2023/06/01 07:58:09;;;;;;;17.50;12.45;;;;;;;15.78;60.99;102201.72;5073722;28;20124;-58
2023/06/01 08:00:35;;;;;;;17.27;12.60;;;;;;;15.92;60.59;102189.28;5073303;28;20459;-58
2023/06/01 08:03:06;;;;;;;20.85;12.35;;;;;;;15.90;59.81;102197.41;5074889;28;20024;-58
2023/06/01 08:05:34;;;;;;;15.27;12.25;;;;;;;16.00;59.78;102203.91;5075060;28;20052;-58
2023/06/01 08:08:00;;;;;;;20.23;13.05;;;;;;;16.24;60.40;102197.94;5073760;28;20029;-58
2023/06/01 08:10:25;;;;;;;20.00;13.10;;;;;;;16.11;60.00;102200.53;5074620;28;20028;-58
2023/06/01 08:12:55;;;;;;;18.60;13.70;;;;;;;15.89;60.04;102201.91;5073507;28;20032;-58
2023/06/01 08:15:23;;;;;;;18.35;12.77;;;;;;;16.15;59.93;102182.38;5074007;28;20024;-58
2023/06/01 08:17:50;;;;;;;19.88;13.02;;;;;;;16.24;60.99;102188.03;5073503;28;20036;-58
2023/06/01 08:20:20;;;;;;;21.17;13.38;;;;;;;16.48;59.94;102187.38;5074729;28;20433;-58
2023/06/01 08:22:48;;;;;;;18.98;12.70;;;;;;;16.53;60.07;102190.59;5074711;28;20479;-58
2023/06/01 08:25:14;;;;;;;20.17;12.95;;;;;;;16.76;57.98;102197.16;5073947;28;20028;-58
2023/06/01 08:27:41;;;;;;;20.23;12.15;;;;;;;16.91;57.73;102200.63;5074820;28;20107;-58
2023/06/01 08:30:07;;;;;;;14.55;12.27;;;;;;;16.75;57.71;102192.72;5072737;28;20040;-58
2023/06/01 08:32:32;;;;;;;18.45;12.50;;;;;;;16.89;57.50;102190.00;5074669;28;20028;-58
2023/06/01 08:34:58;;;;;;;18.38;12.45;;;;;;;16.86;57.80;102176.78;5074020;28;20024;-58
2023/06/01 08:37:23;;;;;;;17.75;11.43;;;;;;;17.17;57.12;102185.41;5074976;28;20032;-58
2023/06/01 08:39:49;;;;;;;22.35;12.38;;;;;;;17.22;55.22;102202.94;5073787;28;20032;-58
2023/06/01 08:42:25;;;;;;;16.38;13.07;;;;;;;17.27;55.65;102181.09;5074552;28;20071;-58
2023/06/01 08:44:54;;;;;;;16.98;11.93;;;;;;;17.50;54.82;102192.94;5074037;28;20066;-58
2023/06/01 08:47:19;;;;;;;;;;;;;;;17.71;54.70;102185.16;5074518;28;20487;-58
2023/06/01 08:49:45;;;;;;;19.00;12.40;;;;;;;17.65;54.38;102185.59;5074107;28;19915;-58
2023/06/01 08:52:22;;;;;;;19.02;13.18;;;;;;;17.76;55.55;102182.13;5073077;28;20498;-58
2023/06/01 08:54:47;;;;;;;14.85;12.13;;;;;;;17.73;55.74;102185.03;5072414;28;20028;-58
2023/06/01 08:57:13;;;;;;;21.95;13.60;;;;;;;17.93;54.49;102179.09;5073545;28;20527;-58
2023/06/01 08:59:39;;;;;;;18.27;12.20;;;;;;;17.91;54.37;102181.94;5072244;28;20117;-58
2023/06/01 09:02:05;;;;;;;16.33;12.88;;;;;;;17.95;54.21;102179.88;5072678;28;20475;-58
2023/06/01 09:04:34;;;;;;;18.48;12.52;;;;;;;18.08;53.74;102183.34;5073925;28;20032;-58
2023/06/01 09:06:59;;;;;;;17.77;12.57;;;;;;;18.48;52.50;102171.47;5073639;28;20028;-58
2023/06/01 09:09:25;;;;;;;20.77;12.80;;;;;;;18.55;52.17;102176.25;5071961;28;20492;-58
2023/06/01 09:12:15;;;;;;;20.70;13.70;;;;;;;18.72;52.24;102177.69;5073714;28;20099;-58
2023/06/01 09:14:41;;;;;;;16.52;12.75;;;;;;;18.70;52.90;102165.28;5073446;28;20028;-58
2023/06/01 09:17:06;;;;;;;19.15;11.88;;;;;;;18.81;52.18;102166.22;5073327;28;20104;-58
2023/06/01 09:19:43;;;;;;;18.08;12.30;;;;;;;18.77;52.23;102159.38;5072355;28;20029;-58
2023/06/01 09:22:10;;;;;;;17.70;12.70;;;;;;;18.74;52.65;102150.66;5073601;28;20024;-58
2023/06/01 09:24:35;;;;;;;18.90;12.77;;;;;;;19.00;51.12;102160.28;5072190;28;20032;-58
2023/06/01 09:27:03;;;;;;;15.73;12.00;;;;;;;19.14;50.34;102150.25;5073528;28;20024;-58
2023/06/01 09:29:29;;;;;;;19.45;12.95;;;;;;;19.15;51.21;102160.91;5105324;28;20032;-58
2023/06/01 09:31:55;;;;;;;18.10;13.32;;;;;;;19.23;50.84;102155.75;5073255;28;20349;-58
2023/06/01 09:34:21;;;;;;;17.52;13.60;;;;;;;19.27;53.84;102151.00;5106059;28;20036;-58
2023/06/01 09:36:51;;;;;;;21.90;12.63;;;;;;;19.65;51.60;102153.38;5073058;28;20020;-58
2023/06/01 09:39:21;;;;;;;20.88;14.63;;;;;;;19.60;49.81;102147.44;5072835;28;20040;-58
2023/06/01 09:41:47;;;;;;;16.35;13.15;;;;;;;19.67;51.51;102137.88;5062027;28;20158;-58
2023/06/01 09:44:14;;;;;;;21.40;13.10;;;;;;;19.65;49.55;102139.00;5065621;28;20039;-58
2023/06/01 09:46:50;;;;;;;17.33;13.60;;;;;;;19.72;50.58;102138.38;5093119;28;20037;-58
2023/06/01 09:49:27;;;;;;;17.95;13.45;;;;;;;19.74;50.33;102139.13;5069239;28;20032;-59
2023/06/01 09:52:07;;;;;;;18.20;13.63;;;;;;;19.98;48.78;102137.25;5069750;28;20471;-58
2023/06/01 09:54:40;;;;;;;21.27;13.20;;;;;;;20.32;48.30;102148.78;5064258;28;20031;-58
2023/06/01 09:57:07;;;;;;;16.30;13.68;;;;;;;20.22;47.71;102127.09;5099622;27;20056;-58
2023/06/01 09:59:43;;;;;;;14.35;12.55;;;;;;;20.20;48.59;102129.91;5097824;28;20051;-58
2023/06/01 10:02:15;;;;;;;19.90;13.40;;;;;;;19.80;49.03;102132.38;5103738;28;20043;-59
2023/06/01 10:04:44;;;;;;;23.48;13.95;;;;;;;20.19;47.33;102135.44;5068612;28;20025;-59
2023/06/01 10:07:12;;;;;;;19.63;13.98;;;;;;;20.37;46.90;102135.75;5071654;28;20107;-59
2023/06/01 10:09:40;;;;;;;23.02;13.68;;;;;;;20.62;47.11;102134.56;5099375;28;20086;-59
2023/06/01 10:12:07;;;;;;;19.15;13.48;;;;;;;20.57;45.37;102143.06;5108266;27;20030;-58
2023/06/01 10:14:33;;;;;;;21.52;12.88;;;;;;;20.64;45.73;102135.28;5077188;28;20044;-58
2023/06/01 10:17:00;;;;;;;25.75;13.73;;;;;;;20.66;47.06;102122.50;5071234;28;20028;-58
2023/06/01 10:19:25;;;;;;;15.50;13.18;;;;;;;20.66;46.31;102133.31;5102532;28;20029;-59
2023/06/01 10:21:52;;;;;;;22.10;14.25;;;;;;;20.77;46.30;102122.44;5099978;28;20032;-58
2023/06/01 10:24:18;;;;;;;18.23;12.30;;;;;;;21.10;46.71;102131.31;5064495;28;20105;-59
2023/06/01 10:26:53;;;;;;;21.73;13.82;;;;;;;20.81;46.89;102133.84;5100546;28;20027;-59
2023/06/01 10:29:19;;;;;;;22.42;13.73;;;;;;;20.91;46.89;102133.91;5102397;28;20124;-58
2023/06/01 10:31:45;;;;;;;19.50;14.27;;;;;;;20.87;46.17;102123.34;5070836;28;20020;-59
2023/06/01 10:34:12;;;;;;;20.00;13.32;;;;;;;21.14;45.32;102124.63;5070302;28;20039;-58
2023/06/01 10:36:53;;;;;;;18.58;13.13;;;;;;;21.44;46.09;102120.25;5071864;28;20399;-59
2023/06/01 10:39:28;;;;;;;21.27;13.77;;;;;;;21.71;44.72;102120.50;5070756;28;20037;-58
2023/06/01 10:41:56;;;;;;;16.85;13.45;;;;;;;21.72;43.83;102113.22;5070687;28;20028;-59
2023/06/01 10:44:40;;;;;;;19.90;14.82;;;;;;;21.88;44.36;102121.66;5071544;28;20472;-59
2023/06/01 10:47:25;;;;;;;18.20;13.70;;;;;;;21.79;44.15;102127.91;5071677;28;20086;-59
2023/06/01 10:49:51;;;;;;;16.60;14.18;;;;;;;21.76;43.63;102120.06;5067473;28;20040;-59
2023/06/01 10:52:34;;;;;;;18.70;13.52;;;;;;;21.99;43.99;102116.13;5072289;28;20439;-59
2023/06/01 10:55:13;;;;;;;17.02;14.07;;;;;;;22.10;42.47;102117.84;5071687;28;20043;-59
2023/06/01 10:57:47;;;;;;;18.33;12.45;;;;;;;22.27;42.84;102108.19;5071580;28;20491;-58
2023/06/01 11:00:27;;;;;;;17.10;13.32;;;;;;;22.12;43.94;102117.69;5071279;28;20126;-59
2023/06/01 11:03:00;;;;;;;17.98;13.75;;;;;;;21.99;44.08;102110.69;5071724;28;20028;-59
2023/06/01 11:05:41;;;;;;;19.67;13.63;;;;;;;22.05;44.65;102103.00;5071521;28;20046;-59
2023/06/01 11:08:29;;;;;;;19.20;13.35;;;;;;;21.88;44.29;102109.97;5071346;28;20032;-59
2023/06/01 11:11:00;;;;;;;20.17;14.43;;;;;;;21.80;43.10;102109.84;5070013;28;20024;-58
2023/06/01 11:13:27;;;;;;;18.48;13.23;;;;;;;21.73;43.27;102104.09;5071579;28;20056;-59